Time;durP1;ratioP1;P1;durP2;ratioP2;P2;SDS_P1;SDS_P2;PMS_P1;PMS_P2;Temp;Humidity;BMP_temperature;BMP_pressure;BME280_temperature;BME280_humidity;BME280_pressure;Samples;Min_cycle;Max_cycle;Signal;HPM_P1;HPM_P2
2023/09/04 00:00:20;;;;;;;24.08;6.60;;;;;;;20.06;100.00;102042.84;5077193;28;20044;-70
2023/09/04 00:02:48;;;;;;;26.10;6.25;;;;;;;20.01;100.00;102040.00;5077346;28;20025;-71
2023/09/04 00:05:14;;;;;;;18.42;6.47;;;;;;;19.96;100.00;102042.56;5075870;28;20032;-70
2023/09/04 00:07:39;;;;;;;26.00;6.30;;;;;;;19.94;100.00;102034.63;5076059;28;20029;-70
2023/09/04 00:10:05;;;;;;;27.38;7.20;;;;;;;19.95;100.00;102030.81;5075341;28;20526;-70
2023/09/04 00:12:32;;;;;;;23.88;6.18;;;;;;;19.97;100.00;102027.88;5084320;28;20024;-70
2023/09/04 00:14:58;;;;;;;24.05;6.30;;;;;;;19.95;100.00;102038.19;5075452;28;20029;-70
2023/09/04 00:17:23;;;;;;;23.95;7.13;;;;;;;19.92;100.00;102036.75;5077434;28;20017;-70
2023/09/04 00:19:48;;;;;;;19.40;6.05;;;;;;;19.84;100.00;102019.88;5099808;28;20122;-70
2023/09/04 00:22:14;;;;;;;19.38;5.72;;;;;;;19.92;100.00;102014.88;5095208;28;20036;-70
2023/09/04 00:24:39;;;;;;;18.95;5.72;;;;;;;19.80;100.00;102024.09;5095724;28;20057;-70
2023/09/04 00:27:05;;;;;;;18.23;5.43;;;;;;;19.68;100.00;102008.50;5091724;28;20068;-71
2023/09/04 00:29:30;;;;;;;17.90;5.60;;;;;;;19.76;100.00;102004.59;5092026;28;20028;-70
2023/09/04 00:31:55;;;;;;;18.02;6.90;;;;;;;19.70;100.00;102005.53;5071895;28;20114;-70
2023/09/04 00:34:21;;;;;;;24.00;6.32;;;;;;;19.69;100.00;102014.78;5075598;28;20028;-70
2023/09/04 00:36:46;;;;;;;17.75;6.03;;;;;;;19.78;100.00;102001.66;5075836;28;20036;-70
2023/09/04 00:39:12;;;;;;;19.30;5.32;;;;;;;19.67;100.00;102015.03;5076778;28;20044;-70
2023/09/04 00:41:37;;;;;;;20.48;5.28;;;;;;;19.78;100.00;102010.69;5075941;28;20029;-70
2023/09/04 00:44:02;;;;;;;19.10;5.47;;;;;;;19.72;100.00;102017.06;5089374;28;20031;-70
2023/09/04 00:46:28;;;;;;;22.77;5.80;;;;;;;19.73;100.00;102020.63;5100499;28;20085;-70
2023/09/04 00:48:54;;;;;;;19.02;6.28;;;;;;;19.75;100.00;102022.06;5099475;28;20036;-69
2023/09/04 00:51:19;;;;;;;18.60;5.57;;;;;;;19.68;100.00;102027.63;5100618;28;20161;-70
2023/09/04 00:53:45;;;;;;;14.65;5.22;;;;;;;19.66;100.00;102027.00;5099584;28;20035;-70
2023/09/04 00:56:13;;;;;;;18.23;5.25;;;;;;;19.59;100.00;102034.41;5099957;28;20040;-70
2023/09/04 00:58:38;;;;;;;29.00;5.70;;;;;;;19.70;100.00;102035.56;5087668;28;20032;-71
2023/09/04 01:01:06;;;;;;;25.58;5.95;;;;;;;19.70;100.00;102061.00;5099941;28;20133;-70
2023/09/04 01:03:32;;;;;;;18.45;5.82;;;;;;;19.62;100.00;102057.72;5091098;28;20032;-70
2023/09/04 01:05:57;;;;;;;22.73;5.40;;;;;;;19.70;100.00;102047.34;5079615;28;20028;-70
2023/09/04 01:08:24;;;;;;;19.98;5.63;;;;;;;19.78;100.00;102059.84;5084385;28;20032;-70
2023/09/04 01:11:26;;;;;;;19.70;5.70;;;;;;;19.71;100.00;102057.19;5099205;28;20028;-72
2023/09/04 01:13:55;;;;;;;19.15;5.32;;;;;;;19.51;100.00;102062.03;5100226;28;20050;-71
2023/09/04 01:16:22;;;;;;;16.20;5.05;;;;;;;19.58;100.00;102057.34;5102744;28;20384;-70
2023/09/04 01:18:48;;;;;;;19.60;5.57;;;;;;;19.60;100.00;102073.47;5101500;28;20027;-70
2023/09/04 01:21:14;;;;;;;26.50;6.72;;;;;;;19.68;100.00;102084.97;5104998;28;20084;-70
2023/09/04 01:23:39;;;;;;;21.90;5.50;;;;;;;19.83;100.00;102075.53;5102330;28;20560;-70
2023/09/04 01:26:19;;;;;;;22.13;6.45;;;;;;;19.81;100.00;102077.69;5101071;28;20031;-70
2023/09/04 01:28:53;;;;;;;19.48;5.63;;;;;;;19.79;100.00;102085.25;5100513;28;20032;-70
2023/09/04 01:31:29;;;;;;;22.80;6.05;;;;;;;19.82;100.00;102080.16;5099907;28;20032;-70
2023/09/04 01:34:08;;;;;;;19.42;6.22;;;;;;;19.65;100.00;102077.22;5099930;28;20089;-70
2023/09/04 01:36:35;;;;;;;19.85;6.57;;;;;;;19.76;100.00;102097.47;5100214;28;20490;-70
2023/09/04 01:39:01;;;;;;;22.48;5.88;;;;;;;19.55;100.00;102085.09;5098945;28;20028;-70
2023/09/04 01:41:27;;;;;;;21.20;6.30;;;;;;;19.67;100.00;102099.69;5098501;28;20031;-71
2023/09/04 01:43:53;;;;;;;21.67;6.03;;;;;;;19.74;100.00;102098.78;5099492;28;20031;-70
2023/09/04 01:46:19;;;;;;;21.48;6.30;;;;;;;19.76;100.00;102102.09;5098424;28;20569;-70
2023/09/04 01:48:45;;;;;;;22.20;5.78;;;;;;;19.76;100.00;102096.63;5098523;28;20131;-71
2023/09/04 01:51:10;;;;;;;18.73;5.10;;;;;;;19.78;100.00;102089.06;5097311;28;20502;-70
2023/09/04 01:53:36;;;;;;;23.00;5.70;;;;;;;19.88;100.00;102097.53;5080191;28;20032;-70
2023/09/04 01:56:01;;;;;;;22.85;6.07;;;;;;;19.78;100.00;102095.34;5098725;28;20403;-70
2023/09/04 01:58:28;;;;;;;17.80;4.68;;;;;;;19.73;100.00;102103.38;5098767;28;20024;-70
2023/09/04 02:00:53;;;;;;;23.02;5.68;;;;;;;19.76;100.00;102110.28;5098974;28;20100;-70
2023/09/04 02:03:19;;;;;;;27.02;5.55;;;;;;;19.84;100.00;102107.28;5095892;28;20044;-71
2023/09/04 02:05:44;;;;;;;22.27;6.72;;;;;;;19.84;100.00;102082.69;5075482;28;20032;-70
2023/09/04 02:08:09;;;;;;;19.80;5.78;;;;;;;19.96;100.00;102097.22;5068826;28;20032;-70
2023/09/04 02:10:35;;;;;;;17.83;5.95;;;;;;;19.90;100.00;102093.53;5098444;28;20034;-70
2023/09/04 02:13:01;;;;;;;19.65;5.53;;;;;;;19.83;100.00;102102.84;5095438;28;20024;-70
2023/09/04 02:15:26;;;;;;;23.27;6.00;;;;;;;19.91;100.00;102102.56;5095800;28;20495;-70
2023/09/04 02:17:52;;;;;;;13.80;4.95;;;;;;;19.84;100.00;102104.53;5088403;28;20093;-70
2023/09/04 02:20:17;;;;;;;23.80;5.68;;;;;;;19.75;100.00;102114.09;5105014;28;20032;-70
2023/09/04 02:22:43;;;;;;;26.73;5.72;;;;;;;19.75;100.00;102114.09;5100576;28;20133;-70
2023/09/04 02:25:09;;;;;;;24.35;5.90;;;;;;;19.85;100.00;102120.69;5081240;28;20032;-70
2023/09/04 02:27:35;;;;;;;21.77;6.75;;;;;;;19.79;100.00;102112.56;5098138;28;20038;-70
2023/09/04 02:30:03;;;;;;;26.83;6.15;;;;;;;19.82;100.00;102117.56;5099498;28;20032;-70
2023/09/04 02:32:29;;;;;;;23.73;5.18;;;;;;;19.76;100.00;102113.84;5098975;28;20046;-69
2023/09/04 02:34:54;;;;;;;25.48;5.95;;;;;;;19.75;100.00;102108.63;5087547;28;20139;-70
2023/09/04 02:37:19;;;;;;;28.77;6.18;;;;;;;19.64;100.00;102083.75;5077882;28;20029;-70
2023/09/04 02:39:45;;;;;;;22.20;5.95;;;;;;;19.85;100.00;102108.94;5079085;28;20032;-70
2023/09/04 02:42:11;;;;;;;24.30;5.93;;;;;;;19.74;100.00;102116.00;5060956;28;20131;-70
2023/09/04 02:44:36;;;;;;;29.23;6.00;;;;;;;19.81;100.00;102126.84;5084678;28;20032;-71
2023/09/04 02:47:02;;;;;;;25.88;5.68;;;;;;;19.82;100.00;102128.50;5089681;28;20054;-70
2023/09/04 02:49:27;;;;;;;28.55;6.78;;;;;;;19.66;100.00;102097.16;5077108;28;20036;-71
2023/09/04 02:51:52;;;;;;;28.83;6.80;;;;;;;19.79;100.00;102120.75;5077441;28;20037;-71
2023/09/04 02:54:18;;;;;;;29.33;5.95;;;;;;;19.69;100.00;102119.41;5083366;28;20035;-70
2023/09/04 02:56:43;;;;;;;31.73;6.45;;;;;;;19.76;100.00;102124.78;5096891;28;20267;-70
2023/09/04 02:59:09;;;;;;;24.42;5.75;;;;;;;19.69;100.00;102119.41;5097929;28;20020;-70
2023/09/04 03:01:35;;;;;;;29.58;5.90;;;;;;;19.76;100.00;102141.16;5106270;28;20032;-70
2023/09/04 03:04:00;;;;;;;30.25;6.55;;;;;;;19.84;100.00;102140.03;5088895;28;20028;-70
2023/09/04 03:06:26;;;;;;;27.58;6.22;;;;;;;19.82;100.00;102132.06;5094228;28;20040;-70
2023/09/04 03:08:51;;;;;;;25.30;6.05;;;;;;;19.87;100.00;102134.13;5086449;28;20024;-70
2023/09/04 03:11:16;;;;;;;26.27;6.18;;;;;;;19.86;100.00;102136.00;5086024;28;20032;-70
2023/09/04 03:13:42;;;;;;;24.23;6.32;;;;;;;19.87;100.00;102136.88;5079174;28;20123;-70
2023/09/04 03:16:07;;;;;;;28.15;5.82;;;;;;;19.83;100.00;102128.25;5099861;28;20386;-70
2023/09/04 03:18:34;;;;;;;25.45;6.20;;;;;;;19.80;100.00;102128.75;5100396;28;20515;-69
2023/09/04 03:21:01;;;;;;;26.95;5.78;;;;;;;19.88;100.00;102127.59;5093026;28;20051;-70
2023/09/04 03:23:26;;;;;;;20.08;5.60;;;;;;;19.86;100.00;102135.16;5091327;28;20025;-72
2023/09/04 03:25:51;;;;;;;24.83;5.63;;;;;;;19.80;100.00;102128.75;5086669;28;20028;-69
2023/09/04 03:28:17;;;;;;;23.08;6.35;;;;;;;19.84;100.00;102131.84;5089791;28;20024;-70
2023/09/04 03:30:42;;;;;;;26.10;5.60;;;;;;;19.84;100.00;102121.75;5105093;28;20032;-70
2023/09/04 03:33:07;;;;;;;23.65;5.35;;;;;;;19.71;100.00;102095.44;5105153;28;20039;-70
2023/09/04 03:35:33;;;;;;;22.38;5.57;;;;;;;19.71;100.00;102122.75;5104009;28;20077;-70
2023/09/04 03:37:58;;;;;;;24.23;5.57;;;;;;;19.81;100.00;102124.94;5087827;28;20054;-70
2023/09/04 03:40:25;;;;;;;26.63;6.28;;;;;;;19.69;100.00;102113.09;5098724;28;20035;-70
2023/09/04 03:42:52;;;;;;;27.23;6.10;;;;;;;19.75;100.00;102127.75;5085192;28;20375;-69
2023/09/04 03:45:18;;;;;;;25.42;6.32;;;;;;;19.67;100.00;102107.06;5081645;28;20487;-70
2023/09/04 03:47:44;;;;;;;26.77;5.90;;;;;;;19.83;100.00;102131.00;5072419;28;20036;-70
2023/09/04 03:50:11;;;;;;;29.95;6.22;;;;;;;19.79;100.00;102126.22;5083024;28;20036;-70
2023/09/04 03:52:38;;;;;;;31.40;6.38;;;;;;;19.74;100.00;102117.91;5079427;28;20045;-70
2023/09/04 03:55:06;;;;;;;27.17;5.68;;;;;;;19.65;100.00;102118.19;5076496;28;20024;-70
2023/09/04 03:57:31;;;;;;;20.48;5.40;;;;;;;19.66;100.00;102122.56;5075358;28;20038;-70
2023/09/04 03:59:58;;;;;;;20.10;6.07;;;;;;;19.67;100.00;102112.50;5075873;28;20049;-70
2023/09/04 04:02:23;;;;;;;27.60;5.60;;;;;;;19.71;100.00;102119.19;5062252;28;20031;-70
2023/09/04 04:04:52;;;;;;;29.70;6.50;;;;;;;19.68;100.00;102122.38;5081193;28;20128;-70
2023/09/04 04:07:18;;;;;;;23.90;6.45;;;;;;;19.64;100.00;102111.06;5084537;28;20055;-71
2023/09/04 04:09:44;;;;;;;23.60;6.38;;;;;;;19.73;100.00;102118.94;5088076;28;20103;-70
2023/09/04 04:12:10;;;;;;;22.05;5.43;;;;;;;19.65;100.00;102126.38;5091606;28;20042;-70
2023/09/04 04:14:36;;;;;;;23.15;5.45;;;;;;;19.71;100.00;102125.47;5082392;28;20063;-70
2023/09/04 04:17:03;;;;;;;23.02;5.65;;;;;;;19.70;100.00;102126.53;5091632;28;20028;-71
2023/09/04 04:19:29;;;;;;;27.65;5.80;;;;;;;19.67;100.00;102126.16;5105547;28;20035;-70
2023/09/04 04:21:54;;;;;;;23.10;5.38;;;;;;;19.76;100.00;102123.94;5106182;28;20028;-69
2023/09/04 04:24:20;;;;;;;25.05;5.97;;;;;;;19.68;100.00;102125.94;5088826;28;20028;-70
2023/09/04 04:26:46;;;;;;;29.70;5.93;;;;;;;19.68;100.00;102119.63;5089322;28;20494;-70
2023/09/04 04:29:11;;;;;;;20.83;5.97;;;;;;;19.61;100.00;102105.19;5105120;28;20024;-70
2023/09/04 04:31:37;;;;;;;26.17;5.97;;;;;;;19.69;100.00;102108.47;5105531;28;20032;-70
2023/09/04 04:34:03;;;;;;;19.88;6.38;;;;;;;19.61;100.00;102116.94;5113049;28;20012;-71
2023/09/04 04:36:28;;;;;;;27.13;6.00;;;;;;;19.63;100.00;102114.84;5106893;28;20028;-70
2023/09/04 04:38:54;;;;;;;22.90;5.47;;;;;;;19.64;100.00;102107.50;5087499;28;20056;-72
2023/09/04 04:41:19;;;;;;;24.95;5.55;;;;;;;19.68;100.00;102116.91;5095470;28;20086;-71
2023/09/04 04:43:45;;;;;;;27.27;5.88;;;;;;;19.69;100.00;102113.09;5093197;28;20044;-71
2023/09/04 04:46:12;;;;;;;25.45;5.80;;;;;;;19.72;100.00;102118.09;5086517;28;20055;-71
2023/09/04 04:48:38;;;;;;;27.10;5.30;;;;;;;19.73;100.00;102118.94;5069471;28;20056;-71
2023/09/04 04:51:04;;;;;;;28.02;6.63;;;;;;;19.73;100.00;102118.94;5086491;28;20468;-70
2023/09/04 04:53:29;;;;;;;21.48;5.70;;;;;;;19.77;100.00;102126.47;5086320;28;20547;-70
2023/09/04 04:55:55;;;;;;;22.02;5.78;;;;;;;19.74;100.00;102134.28;5086738;28;20057;-71
2023/09/04 04:58:21;;;;;;;28.65;5.80;;;;;;;19.68;100.00;102128.66;5082527;28;20032;-70
2023/09/04 05:00:48;;;;;;;28.42;6.47;;;;;;;19.62;100.00;102140.44;5083625;28;20025;-71
2023/09/04 05:03:14;;;;;;;26.08;6.18;;;;;;;19.76;100.00;102137.59;5078638;28;20031;-71
2023/09/04 05:05:45;;;;;;;28.88;5.65;;;;;;;19.69;100.00;102138.50;5075939;28;20476;-70
2023/09/04 05:08:10;;;;;;;21.90;5.90;;;;;;;19.74;100.00;102147.94;5074568;28;20028;-71
2023/09/04 05:10:36;;;;;;;26.08;6.07;;;;;;;19.59;100.00;102131.88;5078684;28;20433;-71
2023/09/04 05:13:01;;;;;;;20.25;5.53;;;;;;;19.67;100.00;102145.28;5069056;28;20353;-71
2023/09/04 05:15:26;;;;;;;25.55;5.97;;;;;;;19.74;100.00;102142.47;5094073;28;20024;-71
2023/09/04 05:17:52;;;;;;;28.20;6.28;;;;;;;19.82;100.00;102140.25;5097215;28;20515;-72
2023/09/04 05:20:17;;;;;;;28.42;6.20;;;;;;;19.76;100.00;102123.94;5095242;28;20028;-70
2023/09/04 05:22:43;;;;;;;21.33;5.75;;;;;;;19.80;100.00;102141.53;5091023;28;20088;-71
2023/09/04 05:25:09;;;;;;;24.98;5.50;;;;;;;19.84;100.00;102137.31;5062481;28;20025;-71
2023/09/04 05:27:34;;;;;;;23.80;6.07;;;;;;;19.83;100.00;102141.09;5079479;28;20032;-71
2023/09/04 05:30:00;;;;;;;22.35;6.07;;;;;;;19.84;100.00;102145.50;5084294;28;20044;-71
2023/09/04 05:32:25;;;;;;;27.80;6.35;;;;;;;19.79;100.00;102128.97;5101912;28;20445;-71
2023/09/04 05:34:52;;;;;;;25.92;5.57;;;;;;;19.83;100.00;102141.09;5081995;28;20032;-71
2023/09/04 05:37:17;;;;;;;25.70;6.50;;;;;;;19.78;100.00;102136.31;5082778;28;20044;-70
2023/09/04 05:39:43;;;;;;;24.30;6.18;;;;;;;19.76;100.00;102138.44;5078857;28;20372;-71
2023/09/04 05:42:08;;;;;;;27.95;6.75;;;;;;;19.89;100.00;102156.56;5098613;28;20024;-71
2023/09/04 05:44:33;;;;;;;28.77;6.07;;;;;;;19.87;100.00;102150.53;5097268;28;20632;-70
2023/09/04 05:47:00;;;;;;;22.90;5.57;;;;;;;19.78;100.00;102160.06;5099768;28;20107;-71
2023/09/04 05:49:26;;;;;;;23.33;5.30;;;;;;;19.84;100.00;102167.34;5098472;28;20028;-71
2023/09/04 05:51:52;;;;;;;23.75;5.75;;;;;;;19.87;100.00;102166.91;5100036;28;20497;-71
2023/09/04 05:54:18;;;;;;;22.08;5.80;;;;;;;20.00;100.00;102158.56;5082856;28;20397;-70
2023/09/04 05:56:43;;;;;;;24.05;5.63;;;;;;;20.07;100.00;102167.50;5065110;28;20035;-70
2023/09/04 05:59:09;;;;;;;24.42;5.70;;;;;;;20.05;100.00;102157.84;5077390;28;20030;-71
2023/09/04 06:01:34;;;;;;;26.85;6.78;;;;;;;20.11;100.00;102179.63;5094046;28;20016;-70
2023/09/04 06:04:00;;;;;;;22.08;6.10;;;;;;;20.10;100.00;102179.88;5101951;28;20102;-70
2023/09/04 06:06:25;;;;;;;23.20;5.72;;;;;;;19.93;100.00;102142.25;5091885;28;20046;-70
2023/09/04 06:08:50;;;;;;;28.33;5.45;;;;;;;20.16;100.00;102179.78;5094472;28;20437;-71
2023/09/04 06:11:16;;;;;;;22.77;5.90;;;;;;;20.18;100.00;102180.38;5096616;28;20032;-70
2023/09/04 06:13:41;;;;;;;25.85;5.60;;;;;;;20.23;100.00;102167.91;5097592;28;20032;-70
2023/09/04 06:16:07;;;;;;;24.88;5.68;;;;;;;20.31;100.00;102182.09;5099583;28;20119;-71
2023/09/04 06:18:34;;;;;;;21.67;5.07;;;;;;;20.22;100.00;102169.00;5098352;28;20028;-70
2023/09/04 06:21:00;;;;;;;32.17;5.60;;;;;;;20.31;100.00;102178.53;5096812;28;20077;-71
2023/09/04 06:23:25;;;;;;;22.85;5.75;;;;;;;20.27;100.00;102180.06;5105260;28;20032;-70
2023/09/04 06:25:51;;;;;;;23.30;5.43;;;;;;;20.28;100.00;102166.16;5108155;28;20103;-71
2023/09/04 06:28:16;;;;;;;23.20;6.07;;;;;;;20.33;100.00;102184.59;5087002;28;20039;-70
2023/09/04 06:30:42;;;;;;;22.25;4.60;;;;;;;20.52;100.00;102169.03;5098750;28;20115;-71
2023/09/04 06:33:08;;;;;;;18.73;5.20;;;;;;;20.77;100.00;102179.81;5083955;28;20032;-70
2023/09/04 06:35:34;;;;;;;22.85;5.93;;;;;;;20.89;100.00;102183.41;5094545;28;20233;-71
2023/09/04 06:37:59;;;;;;;20.83;5.20;;;;;;;21.16;100.00;102185.69;5082384;28;20445;-71
2023/09/04 06:40:25;;;;;;;18.52;4.75;;;;;;;21.32;100.00;102174.91;5077411;28;20037;-71
2023/09/04 06:42:53;;;;;;;20.17;4.93;;;;;;;21.26;100.00;102172.28;5079348;28;20040;-71
2023/09/04 06:45:19;;;;;;;23.15;4.70;;;;;;;21.38;100.00;102186.00;5078524;28;20028;-70
2023/09/04 06:47:44;;;;;;;21.60;4.82;;;;;;;21.49;100.00;102182.41;5080686;28;20099;-71
2023/09/04 06:50:10;;;;;;;19.38;5.20;;;;;;;21.67;100.00;102189.69;5077137;28;20470;-71
2023/09/04 06:52:35;;;;;;;22.65;5.05;;;;;;;21.69;100.00;102187.53;5077033;28;20048;-70
2023/09/04 06:55:04;;;;;;;20.08;4.90;;;;;;;21.77;100.00;102178.94;5084422;28;20486;-71
2023/09/04 06:57:30;;;;;;;19.60;4.43;;;;;;;21.68;100.00;102186.69;5096487;28;20069;-71
2023/09/04 06:59:56;;;;;;;19.30;4.70;;;;;;;21.82;100.00;102181.81;5099166;28;20032;-72
2023/09/04 07:02:22;;;;;;;17.40;4.63;;;;;;;21.92;100.00;102187.50;5099230;28;20365;-71
2023/09/04 07:04:47;;;;;;;19.05;4.30;;;;;;;21.88;100.00;102180.81;5097460;28;20031;-71
2023/09/04 07:07:13;;;;;;;20.02;4.32;;;;;;;21.94;100.00;102188.09;5099525;28;20035;-70
2023/09/04 07:09:38;;;;;;;21.92;4.70;;;;;;;21.81;100.00;102197.41;5099028;28;20023;-71
2023/09/04 07:12:05;;;;;;;21.35;4.13;;;;;;;21.93;100.00;102191.91;5099146;28;20025;-71
2023/09/04 07:14:32;;;;;;;19.23;4.80;;;;;;;21.95;100.00;102176.06;5098215;28;20028;-71
2023/09/04 07:16:58;;;;;;;18.63;4.38;;;;;;;21.96;100.00;102188.69;5066216;28;20402;-72
2023/09/04 07:19:23;;;;;;;17.42;4.35;;;;;;;21.99;100.00;102188.22;5098710;28;20020;-71
2023/09/04 07:21:48;;;;;;;15.35;3.97;;;;;;;21.94;100.00;102193.56;5105245;28;20035;-71
2023/09/04 07:24:14;;;;;;;18.40;4.63;;;;;;;21.89;100.00;102193.47;5100908;28;20035;-71
2023/09/04 07:26:39;;;;;;;22.70;4.85;;;;;;;21.94;100.00;102179.03;5098042;28;20023;-71
2023/09/04 07:29:05;;;;;;;12.88;4.20;;;;;;;21.96;100.00;102190.59;5097995;28;20063;-71
2023/09/04 07:31:30;;;;;;;16.92;4.30;;;;;;;21.91;100.00;102187.75;5079842;28;20054;-71
2023/09/04 07:33:55;;;;;;;22.42;4.88;;;;;;;21.84;100.00;102184.31;5080205;28;20509;-71
2023/09/04 07:36:21;;;;;;;20.05;4.35;;;;;;;21.87;100.00;102176.44;5096786;28;20414;-71
2023/09/04 07:38:47;;;;;;;17.45;4.18;;;;;;;21.97;100.00;102184.88;5092124;28;20559;-70
2023/09/04 07:41:13;;;;;;;16.92;4.57;;;;;;;21.98;100.00;102189.25;5078202;28;20573;-71
2023/09/04 07:43:38;;;;;;;19.15;4.80;;;;;;;22.01;100.00;102186.03;5097845;28;20020;-71
2023/09/04 07:46:04;;;;;;;19.13;4.43;;;;;;;22.02;100.00;102193.22;5095130;28;20602;-71
2023/09/04 07:48:29;;;;;;;20.65;4.70;;;;;;;21.98;100.00;102193.91;5087334;28;20127;-71
2023/09/04 07:50:56;;;;;;;14.60;4.78;;;;;;;22.00;100.00;102203.56;5092973;28;20110;-71
2023/09/04 07:53:23;;;;;;;16.25;4.22;;;;;;;22.17;100.00;102200.94;5094481;28;20044;-71
2023/09/04 07:55:48;;;;;;;16.73;4.60;;;;;;;22.07;100.00;102195.22;5096946;28;20036;-71
2023/09/04 07:58:13;;;;;;;19.00;4.40;;;;;;;22.02;100.00;102208.81;5096728;28;20032;-71
2023/09/04 08:00:46;;;;;;;20.10;4.75;;;;;;;22.01;100.00;102204.41;5096982;28;20088;-70
2023/09/04 08:03:12;;;;;;;18.63;5.07;;;;;;;21.98;100.00;102216.66;5097387;28;20052;-70
2023/09/04 08:05:38;;;;;;;19.05;5.55;;;;;;;21.93;100.00;102202.03;5080584;28;20031;-71
2023/09/04 08:08:08;;;;;;;17.45;4.18;;;;;;;22.09;100.00;102219.66;5095232;28;20039;-72
2023/09/04 08:10:34;;;;;;;18.05;4.40;;;;;;;22.11;100.00;102214.75;5082601;28;20455;-70
2023/09/04 08:12:59;;;;;;;22.20;5.10;;;;;;;22.12;100.00;102230.09;5067443;28;20127;-71
2023/09/04 08:15:25;;;;;;;15.02;4.45;;;;;;;22.31;100.00;102233.56;5090245;28;20038;-71
2023/09/04 08:17:50;;;;;;;18.67;4.65;;;;;;;22.47;100.00;102230.88;5095853;28;20039;-70
2023/09/04 08:20:16;;;;;;;15.43;4.43;;;;;;;22.39;100.00;102228.53;5095613;28;20032;-71
2023/09/04 08:22:41;;;;;;;15.35;4.63;;;;;;;22.25;100.00;102246.31;5093483;28;20032;-71
2023/09/04 08:25:08;;;;;;;20.25;5.07;;;;;;;22.20;100.00;102238.84;5086165;28;20428;-71
2023/09/04 08:27:34;;;;;;;18.63;4.70;;;;;;;22.17;100.00;102227.53;5098168;28;20024;-71
2023/09/04 08:50:27;;;;;;;14.75;4.07;;;;;;;22.32;98.98;102244.31;5546299;23;20062;-75
2023/09/04 08:52:53;;;;;;;16.58;4.22;;;;;;;22.23;99.27;102240.25;4994284;28;20161;-77
2023/09/04 08:55:21;;;;;;;20.10;5.20;;;;;;;22.25;99.59;102243.56;4992066;28;20528;-77
2023/09/04 08:57:48;;;;;;;17.17;4.68;;;;;;;22.01;99.31;102205.22;4997227;28;20094;-77
2023/09/04 09:00:14;;;;;;;23.13;4.80;;;;;;;22.41;98.75;102248.31;5000641;28;20034;-77
2023/09/04 09:02:45;;;;;;;24.73;5.63;;;;;;;22.39;98.50;102239.50;4964508;28;20069;-77
2023/09/04 09:05:14;;;;;;;18.02;4.07;;;;;;;22.36;98.52;102240.00;5003414;28;20092;-76
2023/09/04 09:07:41;;;;;;;14.43;4.00;;;;;;;22.01;98.82;102190.69;4961627;28;20136;-77
2023/09/04 09:10:09;;;;;;;19.95;4.40;;;;;;;22.62;97.83;102240.50;4977771;28;20042;-76
2023/09/04 09:12:34;;;;;;;14.38;4.22;;;;;;;22.67;97.44;102251.56;4961623;28;20034;-76
2023/09/04 09:15:01;;;;;;;16.73;4.22;;;;;;;22.49;96.59;102212.28;4945870;28;20085;-77
2023/09/04 09:17:27;;;;;;;16.08;3.70;;;;;;;22.68;96.26;102237.63;4982541;28;20084;-75
2023/09/04 09:19:52;;;;;;;21.73;4.50;;;;;;;22.76;95.47;102244.59;4984518;28;20038;-77
2023/09/04 09:22:20;;;;;;;16.77;3.85;;;;;;;22.92;94.41;102246.56;5004151;28;20026;-76
2023/09/04 09:24:56;;;;;;;14.55;3.90;;;;;;;23.05;94.24;102233.63;4998452;28;20030;-76
2023/09/04 09:27:30;;;;;;;14.75;4.45;;;;;;;23.17;93.61;102243.44;4996024;28;20065;-76
2023/09/04 09:30:00;;;;;;;13.27;3.38;;;;;;;23.02;93.49;102234.13;4996596;28;20026;-76
2023/09/04 09:32:35;;;;;;;13.40;3.30;;;;;;;22.87;93.72;102226.41;5009310;28;20061;-77
2023/09/04 09:35:02;;;;;;;18.88;4.43;;;;;;;22.95;92.87;102235.13;4991288;28;20030;-76
2023/09/04 09:37:33;;;;;;;15.43;3.72;;;;;;;23.02;92.97;102248.69;4996473;28;20532;-77
2023/09/04 09:39:59;;;;;;;17.67;4.10;;;;;;;23.06;92.88;102240.78;4978302;28;20496;-77
2023/09/04 09:42:25;;;;;;;14.88;4.20;;;;;;;23.18;92.61;102256.09;4978908;28;20039;-78
2023/09/04 09:44:51;;;;;;;13.57;3.70;;;;;;;23.11;92.63;102249.94;4979845;28;20062;-79
2023/09/04 09:47:17;;;;;;;16.13;3.95;;;;;;;23.11;91.78;102249.94;4962731;28;20031;-77
2023/09/04 09:49:43;;;;;;;16.30;3.70;;;;;;;23.21;91.51;102255.63;4994921;28;20109;-77
2023/09/04 09:52:10;;;;;;;16.20;3.97;;;;;;;22.91;91.25;102195.50;4995785;28;20404;-77
2023/09/04 09:54:42;;;;;;;15.82;3.90;;;;;;;23.32;90.86;102245.63;4996183;28;20026;-77
2023/09/04 09:57:11;;;;;;;13.40;3.95;;;;;;;23.09;90.04;102221.91;4994445;28;20054;-77
2023/09/04 09:59:38;;;;;;;10.75;2.92;;;;;;;23.37;89.52;102253.94;4998955;28;20109;-78
2023/09/04 10:02:05;;;;;;;14.48;3.70;;;;;;;23.60;88.62;102263.09;4996642;28;20026;-77
2023/09/04 10:04:31;;;;;;;16.20;3.70;;;;;;;23.43;88.25;102227.38;4996864;28;20022;-77
2023/09/04 10:06:59;;;;;;;16.30;3.95;;;;;;;23.59;88.39;102264.19;4994725;28;20041;-77
2023/09/04 10:09:27;;;;;;;19.73;4.32;;;;;;;23.41;88.24;102260.63;4994336;28;20129;-77
2023/09/04 10:12:20;;;;;;;16.45;3.75;;;;;;;23.17;87.78;102205.00;4993906;28;20401;-77
2023/09/04 10:14:49;;;;;;;13.95;3.97;;;;;;;23.34;87.71;102212.41;4992726;28;20042;-77
2023/09/04 10:17:19;;;;;;;11.60;3.03;;;;;;;23.57;87.80;102272.66;4995040;28;20030;-77
2023/09/04 10:19:48;;;;;;;12.50;3.70;;;;;;;23.56;88.02;102281.16;4977661;28;20105;-77
2023/09/04 10:22:25;;;;;;;13.98;4.07;;;;;;;23.49;87.17;102251.09;4995274;28;20022;-76
2023/09/04 10:25:01;;;;;;;11.68;3.63;;;;;;;23.14;87.91;102204.66;4995100;28;20065;-77
2023/09/04 10:27:32;;;;;;;16.30;3.92;;;;;;;23.52;87.90;102267.09;4984496;28;20266;-77
2023/09/04 10:30:14;;;;;;;13.18;3.42;;;;;;;23.31;87.57;102240.38;4994612;28;20022;-76
2023/09/04 10:32:39;;;;;;;14.65;3.97;;;;;;;23.31;87.33;102232.97;4997312;28;20032;-77
2023/09/04 10:35:07;;;;;;;11.82;3.17;;;;;;;23.60;87.51;102268.59;4978723;28;20440;-77
2023/09/04 10:37:34;;;;;;;13.38;3.90;;;;;;;23.62;86.87;102272.75;4994104;28;20041;-77
2023/09/04 10:40:01;;;;;;;11.57;3.72;;;;;;;23.47;86.06;102242.28;4978625;28;20026;-77
2023/09/04 10:42:28;;;;;;;14.10;3.40;;;;;;;23.55;86.41;102274.00;4978059;28;20034;-76
2023/09/04 10:44:56;;;;;;;13.73;3.30;;;;;;;23.46;85.85;102257.09;4994858;28;20035;-76
2023/09/04 10:47:24;;;;;;;13.20;3.78;;;;;;;23.58;85.18;102251.53;4993697;28;20105;-77
2023/09/04 10:49:59;;;;;;;11.00;3.60;;;;;;;23.83;84.85;102249.16;4993695;28;20500;-77
2023/09/04 10:52:41;;;;;;;15.20;3.83;;;;;;;24.17;83.72;102257.31;4968185;28;20038;-77
2023/09/04 10:55:13;;;;;;;12.45;3.50;;;;;;;24.13;83.40;102264.44;4961139;28;20046;-77
2023/09/04 10:58:06;;;;;;;9.15;3.05;;;;;;;24.38;82.81;102261.19;4969738;28;20200;-77
2023/09/04 11:00:39;;;;;;;12.98;3.00;;;;;;;24.40;82.11;102256.25;4977628;28;20046;-77
2023/09/04 11:03:23;;;;;;;11.30;2.95;;;;;;;24.06;81.23;102225.28;4995225;28;20050;-77
2023/09/04 11:06:08;;;;;;;10.52;2.83;;;;;;;24.19;80.34;102238.66;4976130;28;20725;-77
2023/09/04 11:08:36;;;;;;;11.30;3.33;;;;;;;24.33;80.15;102256.44;4993083;28;20064;-77
2023/09/04 11:11:04;;;;;;;11.38;3.70;;;;;;;24.14;79.60;102261.44;4988246;28;20068;-77
2023/09/04 11:13:38;;;;;;;6.75;2.90;;;;;;;23.83;79.89;102229.94;4993723;28;20046;-77
2023/09/04 11:16:06;;;;;;;10.63;3.10;;;;;;;23.99;79.92;102254.91;4994874;28;20026;-77
2023/09/04 11:18:32;;;;;;;9.07;2.83;;;;;;;24.12;79.34;102254.53;4994365;28;20030;-77
2023/09/04 11:20:59;;;;;;;9.43;3.05;;;;;;;23.92;79.82;102228.41;4992291;28;20034;-77
2023/09/04 11:23:26;;;;;;;10.20;3.28;;;;;;;24.13;78.93;102217.69;4992515;28;20113;-77
2023/09/04 11:25:58;;;;;;;12.20;3.47;;;;;;;24.36;78.59;102244.91;4975316;28;20044;-77
2023/09/04 11:28:26;;;;;;;10.15;3.42;;;;;;;24.42;78.10;102239.53;4991785;28;20038;-77
2023/09/04 11:30:57;;;;;;;13.38;3.67;;;;;;;24.38;77.95;102244.69;4976193;28;20026;-77